createdAt,value
2022-08-19T00:01:37.738Z,99.67
2022-08-19T00:04:08.246Z,100.00
2022-08-19T00:06:38.055Z,99.61
2022-08-19T00:09:07.862Z,97.65
2022-08-19T00:11:38.063Z,97.39
2022-08-19T00:14:07.497Z,96.87
2022-08-19T00:16:35.367Z,98.08
2022-08-19T00:19:02.664Z,97.53
2022-08-19T00:21:29.968Z,96.83
2022-08-19T00:24:01.150Z,96.76
2022-08-19T00:26:29.100Z,96.66
2022-08-19T00:28:56.651Z,96.90
2022-08-19T00:31:23.949Z,96.68
2022-08-19T00:33:51.439Z,96.96
2022-08-19T00:36:18.823Z,95.91
2022-08-19T00:38:46.531Z,96.44
2022-08-19T00:41:15.943Z,98.14
2022-08-19T00:43:43.344Z,96.81
2022-08-19T00:46:10.731Z,96.69
2022-08-19T00:48:38.307Z,97.01
2022-08-19T00:51:06.844Z,98.36
2022-08-19T00:53:35.125Z,99.06
2022-08-19T00:56:07.123Z,99.27
2022-08-19T00:58:36.354Z,99.17
2022-08-19T01:01:05.803Z,99.12
2022-08-19T01:03:57.218Z,99.57
2022-08-19T01:06:20.895Z,99.34
2022-08-19T01:08:50.023Z,99.58
2022-08-19T01:11:18.097Z,99.38
2022-08-19T01:13:49.279Z,99.11
2022-08-19T01:16:20.459Z,98.58
2022-08-19T01:18:50.136Z,98.85
2022-08-19T01:21:25.255Z,98.57
2022-08-19T01:23:52.575Z,98.30
2022-08-19T01:26:23.577Z,98.53
2022-08-19T01:28:54.803Z,98.21
2022-08-19T01:31:33.224Z,98.37
2022-08-19T01:34:02.433Z,97.35
2022-08-19T01:36:39.076Z,95.74
2022-08-19T01:39:11.784Z,95.40
2022-08-19T01:41:39.036Z,94.87
2022-08-19T01:44:17.703Z,94.69
2022-08-19T01:46:48.939Z,94.17
2022-08-19T01:49:18.650Z,93.89
2022-08-19T01:51:46.389Z,93.51
2022-08-19T01:54:23.429Z,93.46
2022-08-19T01:57:01.979Z,93.52
2022-08-19T01:59:30.471Z,92.52
2022-08-19T02:01:57.705Z,91.63
2022-08-19T02:04:26.425Z,91.05
2022-08-19T02:06:53.720Z,91.35
2022-08-19T02:09:21.021Z,91.58
2022-08-19T02:11:48.336Z,91.45
2022-08-19T02:14:15.538Z,90.88
2022-08-19T02:16:42.782Z,91.91
2022-08-19T02:19:11.334Z,93.37
2022-08-19T02:21:38.728Z,92.38
2022-08-19T02:24:06.158Z,92.49
2022-08-19T02:26:34.412Z,92.19
2022-08-19T02:29:01.876Z,92.74
2022-08-19T02:31:29.275Z,93.48
2022-08-19T02:33:57.428Z,92.34
2022-08-19T02:36:26.157Z,92.83
2022-08-19T02:38:54.450Z,92.97
2022-08-19T02:41:33.716Z,93.12
2022-08-19T02:44:28.693Z,92.91
2022-08-19T02:46:52.313Z,92.67
2022-08-19T02:49:20.138Z,92.14
2022-08-19T02:51:47.965Z,92.30
2022-08-19T02:54:16.036Z,92.61
2022-08-19T02:56:44.702Z,93.15
2022-08-19T02:59:12.774Z,92.99
2022-08-19T03:01:42.516Z,93.60
2022-08-19T03:04:15.471Z,92.94
2022-08-19T03:06:45.686Z,92.59
2022-08-19T03:09:13.308Z,92.04
2022-08-19T03:11:40.912Z,92.63
2022-08-19T03:14:10.230Z,93.46
2022-08-19T03:16:49.948Z,93.69
2022-08-19T03:19:19.547Z,94.62
2022-08-19T03:21:47.163Z,95.16
2022-08-19T03:24:16.224Z,95.53
2022-08-19T03:26:46.051Z,95.71
2022-08-19T03:29:13.898Z,95.45
2022-08-19T03:31:52.616Z,95.99
2022-08-19T03:34:27.284Z,95.87
2022-08-19T03:36:56.943Z,95.84
2022-08-19T03:39:26.011Z,95.65
2022-08-19T03:42:33.015Z,95.73
2022-08-19T03:44:46.014Z,96.21
2022-08-19T03:47:17.529Z,96.20
2022-08-19T03:49:45.449Z,96.60
2022-08-19T03:52:12.804Z,96.84
2022-08-19T03:54:40.245Z,96.60
2022-08-19T03:57:08.191Z,97.00
2022-08-19T03:59:36.905Z,97.47
2022-08-19T04:02:10.013Z,98.71
2022-08-19T04:04:44.097Z,99.25
2022-08-19T04:07:16.684Z,99.67
2022-08-19T04:09:44.661Z,100.00
2022-08-19T04:12:11.916Z,100.00
2022-08-19T04:14:39.123Z,100.00
2022-08-19T04:17:06.458Z,99.78
2022-08-19T04:19:37.518Z,98.96
2022-08-19T04:22:05.627Z,99.28
2022-08-19T04:24:33.358Z,98.89
2022-08-19T04:27:02.916Z,99.02
2022-08-19T04:29:31.204Z,98.85
2022-08-19T04:32:08.579Z,97.23
2022-08-19T04:35:15.821Z,97.63
2022-08-19T04:37:27.501Z,96.97
2022-08-19T04:40:20.244Z,97.48
2022-08-19T04:42:47.674Z,96.54
2022-08-19T04:45:15.192Z,96.52
2022-08-19T04:47:47.725Z,96.46
2022-08-19T04:50:27.194Z,97.65
2022-08-19T04:52:56.383Z,95.75
2022-08-19T04:55:26.389Z,96.77
2022-08-19T04:57:54.890Z,97.91
2022-08-19T05:00:22.281Z,97.49
2022-08-19T05:02:50.274Z,97.43
2022-08-19T05:05:18.255Z,97.16
2022-08-19T05:07:45.861Z,97.71
2022-08-19T05:10:13.728Z,97.10
2022-08-19T05:12:41.025Z,98.70
2022-08-19T05:15:09.620Z,98.66
2022-08-19T05:17:38.971Z,98.77
2022-08-19T05:20:26.693Z,98.44
2022-08-19T05:22:54.377Z,99.33
2022-08-19T05:25:22.840Z,100.00
2022-08-19T05:27:50.399Z,98.60
2022-08-19T05:30:18.147Z,98.68
2022-08-19T05:32:45.919Z,98.37
2022-08-19T05:35:13.403Z,100.00
2022-08-19T05:37:41.470Z,100.00
2022-08-19T05:40:10.777Z,100.00
2022-08-19T05:42:38.547Z,100.00
2022-08-19T05:45:06.394Z,99.14
2022-08-19T05:47:33.631Z,97.77
2022-08-19T05:50:02.784Z,100.00
2022-08-19T05:52:33.512Z,99.63
2022-08-19T05:55:00.904Z,100.00
2022-08-19T05:57:30.009Z,99.22
2022-08-19T05:59:59.182Z,97.20
2022-08-19T06:02:31.713Z,96.41
2022-08-19T06:04:59.608Z,97.80
2022-08-19T06:07:26.939Z,98.04
2022-08-19T06:10:00.354Z,98.60
2022-08-19T06:12:35.596Z,98.66
2022-08-19T06:15:10.378Z,99.09
2022-08-19T06:17:37.941Z,98.17
2022-08-19T06:20:08.016Z,97.78
2022-08-19T06:22:43.766Z,97.66
2022-08-19T06:25:12.272Z,98.09
2022-08-19T06:27:58.531Z,98.37
2022-08-19T06:30:28.043Z,99.13
2022-08-19T06:32:55.279Z,99.65
2022-08-19T06:35:22.548Z,98.97
2022-08-19T06:37:49.754Z,98.12
2022-08-19T06:40:17.062Z,98.93
2022-08-19T06:42:50.985Z,98.34
2022-08-19T06:45:25.156Z,97.77
2022-08-19T06:48:02.088Z,98.61
2022-08-19T06:50:30.621Z,96.69
2022-08-19T06:52:57.888Z,97.30
2022-08-19T06:55:30.219Z,98.52
2022-08-19T06:58:04.731Z,97.24
2022-08-19T07:00:32.638Z,98.57
2022-08-19T07:03:06.094Z,98.94
2022-08-19T07:05:41.169Z,99.71
2022-08-19T07:08:13.408Z,99.17
2022-08-19T07:10:44.699Z,99.03
2022-08-19T07:13:12.530Z,98.25
2022-08-19T07:15:39.995Z,98.78
2022-08-19T07:18:07.245Z,98.61
2022-08-19T07:20:41.947Z,98.21
2022-08-19T07:23:16.107Z,99.44
2022-08-19T07:25:52.960Z,99.91
2022-08-19T07:28:24.316Z,99.75
2022-08-19T07:30:53.084Z,98.46
2022-08-19T07:33:20.746Z,97.16
2022-08-19T07:35:48.080Z,96.41
2022-08-19T07:38:17.025Z,96.70
2022-08-19T07:40:47.007Z,97.05
2022-08-19T07:43:17.380Z,95.68
2022-08-19T07:45:46.280Z,97.00
2022-08-19T07:48:13.737Z,97.40
2022-08-19T07:50:41.327Z,96.69
2022-08-19T07:53:08.564Z,94.72
2022-08-19T07:55:42.143Z,94.59
2022-08-19T07:58:13.585Z,95.35
2022-08-19T08:00:42.104Z,95.69
2022-08-19T08:03:09.673Z,95.85
2022-08-19T08:05:55.690Z,95.45
2022-08-19T08:08:44.066Z,96.18
2022-08-19T08:11:20.061Z,95.89
2022-08-19T08:14:01.159Z,95.93
2022-08-19T08:16:39.567Z,95.65
2022-08-19T08:19:20.307Z,91.62
2022-08-19T08:21:54.686Z,92.44
2022-08-19T08:24:22.028Z,92.99
2022-08-19T08:26:57.898Z,92.60
2022-08-19T08:29:34.889Z,92.82
2022-08-19T08:32:02.954Z,94.44
2022-08-19T08:34:30.194Z,92.08
2022-08-19T08:36:57.427Z,89.83
2022-08-19T08:39:24.636Z,88.88
2022-08-19T08:42:09.894Z,88.67
2022-08-19T08:44:44.713Z,94.18
2022-08-19T08:47:19.037Z,93.66
2022-08-19T08:49:51.334Z,93.07
2022-08-19T08:52:24.657Z,87.34
2022-08-19T08:55:10.299Z,84.84
2022-08-19T08:57:55.964Z,85.84
2022-08-19T09:00:23.464Z,88.27
2022-08-19T09:02:51.598Z,86.28
2022-08-19T09:05:26.017Z,87.27
2022-08-19T09:08:08.031Z,89.08
2022-08-19T09:10:44.639Z,88.50
2022-08-19T09:13:37.612Z,87.52
2022-08-19T09:16:11.123Z,88.69
2022-08-19T09:18:48.124Z,86.48
2022-08-19T09:21:16.759Z,85.14
2022-08-19T09:23:44.679Z,84.14
2022-08-19T09:26:16.507Z,83.54
2022-08-19T09:28:48.341Z,84.69
2022-08-19T09:31:25.455Z,86.03
2022-08-19T09:33:53.952Z,88.56
2022-08-19T09:39:02.144Z,86.01
2022-08-19T09:41:29.927Z,83.17
2022-08-19T09:43:58.552Z,85.69
2022-08-19T09:46:28.444Z,82.26
2022-08-19T09:49:06.006Z,85.06
2022-08-19T09:51:35.009Z,83.36
2022-08-19T09:54:04.526Z,85.78
2022-08-19T09:56:34.123Z,83.01
2022-08-19T09:59:04.620Z,81.19
2022-08-19T10:01:32.980Z,81.98
2022-08-19T10:04:07.592Z,80.65
2022-08-19T10:06:46.777Z,79.38
2022-08-19T10:09:16.015Z,78.09
2022-08-19T10:11:54.469Z,76.24
2022-08-19T10:14:24.847Z,76.98
2022-08-19T10:16:52.891Z,75.35
2022-08-19T10:19:26.135Z,76.36
2022-08-19T10:21:54.085Z,79.49
2022-08-19T10:24:21.712Z,80.05
2022-08-19T10:26:55.786Z,75.99
2022-08-19T10:29:32.706Z,77.49
2022-08-19T10:32:09.693Z,74.50
2022-08-19T10:34:48.931Z,74.58
2022-08-19T10:37:28.891Z,73.19
2022-08-19T10:39:58.863Z,72.11
2022-08-19T10:42:26.267Z,72.03
2022-08-19T10:44:53.572Z,70.88
2022-08-19T10:47:25.370Z,70.92
2022-08-19T10:50:13.427Z,69.52
2022-08-19T10:52:49.209Z,72.13
2022-08-19T10:55:40.164Z,75.06
2022-08-19T10:58:13.313Z,70.27
2022-08-19T11:00:41.503Z,73.54
2022-08-19T11:03:09.623Z,68.66
2022-08-19T11:05:39.879Z,70.03
2022-08-19T11:08:21.232Z,69.97
2022-08-19T11:11:01.703Z,67.88
2022-08-19T11:13:30.590Z,70.50
2022-08-19T11:16:07.705Z,67.02
2022-08-19T11:18:37.671Z,69.59
2022-08-19T11:21:18.236Z,68.74
2022-08-19T11:23:47.945Z,68.03
2022-08-19T11:26:16.652Z,66.42
2022-08-19T11:28:44.037Z,69.28
2022-08-19T11:31:17.467Z,68.04
2022-08-19T11:33:47.149Z,63.71
2022-08-19T11:36:17.108Z,65.96
2022-08-19T11:38:45.915Z,68.65
2022-08-19T11:41:13.211Z,66.92
2022-08-19T11:43:41.095Z,62.49
2022-08-19T11:46:11.525Z,65.27
2022-08-19T11:48:39.520Z,65.63
2022-08-19T11:51:09.850Z,62.26
2022-08-19T11:53:38.287Z,60.21
2022-08-19T11:56:07.012Z,62.28
2022-08-19T11:58:35.256Z,64.46
2022-08-19T12:01:05.968Z,65.13
2022-08-19T12:03:33.405Z,62.70
2022-08-19T12:06:06.110Z,62.14
2022-08-19T12:08:33.541Z,64.09
2022-08-19T12:11:03.996Z,60.30
2022-08-19T12:13:32.019Z,60.95
2022-08-19T12:16:00.411Z,63.14
2022-08-19T12:18:27.799Z,61.35
2022-08-19T12:20:58.320Z,59.77
2022-08-19T12:23:25.836Z,60.15
2022-08-19T12:25:53.147Z,63.02
2022-08-19T12:28:21.896Z,60.44
2022-08-19T12:30:52.045Z,63.36
2022-08-19T12:33:24.842Z,63.62
2022-08-19T12:35:52.972Z,61.71
2022-08-19T12:38:20.880Z,61.03
2022-08-19T12:40:49.120Z,58.34
2022-08-19T12:43:16.740Z,57.11
2022-08-19T12:45:44.643Z,60.54
2022-08-19T12:48:33.369Z,57.87
2022-08-19T12:51:08.160Z,55.36
2022-08-19T12:53:39.262Z,56.31
2022-08-19T12:56:11.465Z,57.68
2022-08-19T12:58:40.541Z,54.90
2022-08-19T13:01:15.751Z,58.38
2022-08-19T13:03:47.623Z,59.72
2022-08-19T13:06:15.983Z,57.59
2022-08-19T13:08:46.830Z,61.49
2022-08-19T13:11:20.388Z,61.48
2022-08-19T13:13:49.320Z,59.64
2022-08-19T13:16:16.899Z,60.54
2022-08-19T13:18:48.323Z,58.92
2022-08-19T13:21:16.134Z,57.91
2022-08-19T13:23:43.452Z,58.69
2022-08-19T13:26:12.627Z,60.81
2022-08-19T13:29:00.040Z,60.74
2022-08-19T13:31:51.112Z,60.33
2022-08-19T13:34:26.516Z,60.49
2022-08-19T13:36:58.650Z,61.30
2022-08-19T13:39:26.276Z,61.84
2022-08-19T13:41:53.688Z,63.60
2022-08-19T13:44:21.522Z,60.34
2022-08-19T13:46:54.146Z,60.02
2022-08-19T13:49:22.433Z,59.34
2022-08-19T13:51:49.727Z,60.64
2022-08-19T13:54:17.044Z,61.30
2022-08-19T13:56:45.896Z,60.97
2022-08-19T13:59:13.338Z,59.97
2022-08-19T14:01:41.992Z,59.61
2022-08-19T14:04:09.739Z,60.42
2022-08-19T14:06:37.017Z,60.23
2022-08-19T14:09:05.598Z,59.19
2022-08-19T14:11:32.830Z,60.24
2022-08-19T14:14:00.106Z,60.01
2022-08-19T14:16:28.238Z,60.12
2022-08-19T14:18:55.824Z,58.93
2022-08-19T14:21:25.476Z,60.25
2022-08-19T14:23:53.798Z,60.05
2022-08-19T14:26:22.515Z,60.79
2022-08-19T14:28:50.406Z,63.36
2022-08-19T14:31:19.939Z,63.36
2022-08-19T14:33:51.677Z,60.27
2022-08-19T14:36:21.248Z,57.48
2022-08-19T14:38:49.781Z,54.84
2022-08-19T14:41:20.445Z,56.19
2022-08-19T14:43:50.761Z,56.30
2022-08-19T14:46:21.539Z,55.82
2022-08-19T14:48:50.739Z,54.35
2022-08-19T14:51:21.875Z,54.44
2022-08-19T14:53:52.255Z,55.37
2022-08-19T14:56:23.311Z,55.84
2022-08-19T14:58:54.228Z,56.28
2022-08-19T15:01:24.974Z,57.09
2022-08-19T15:03:55.720Z,58.83
2022-08-19T15:06:25.019Z,60.73
2022-08-19T15:08:52.759Z,59.66
2022-08-19T15:11:23.595Z,63.35
2022-08-19T15:13:51.517Z,61.48
2022-08-19T15:16:19.263Z,60.70
2022-08-19T15:18:50.637Z,62.61
2022-08-19T15:21:27.196Z,62.13
2022-08-19T15:23:57.270Z,63.90
2022-08-19T15:26:27.322Z,61.11
2022-08-19T15:28:55.012Z,60.57
2022-08-19T15:31:28.096Z,62.38
2022-08-19T15:33:59.191Z,63.93
2022-08-19T15:36:27.425Z,64.13
2022-08-19T15:38:56.310Z,58.34
2022-08-19T15:41:30.656Z,61.32
2022-08-19T15:44:01.554Z,63.66
2022-08-19T15:46:30.959Z,63.01
2022-08-19T15:49:00.204Z,58.85
2022-08-19T15:51:30.420Z,58.18
2022-08-19T15:54:00.129Z,57.61
2022-08-19T15:56:47.339Z,61.20
2022-08-19T15:59:47.089Z,56.76
2022-08-19T16:02:36.918Z,55.63
2022-08-19T16:05:26.380Z,58.47
2022-08-19T16:07:54.626Z,59.45
2022-08-19T16:10:27.234Z,59.58
2022-08-19T16:12:56.852Z,58.73
2022-08-19T16:15:27.861Z,58.77
2022-08-19T16:17:57.647Z,57.81
2022-08-19T16:20:27.875Z,60.12
2022-08-19T16:22:58.184Z,60.63
2022-08-19T16:25:28.564Z,61.20
2022-08-19T16:28:07.953Z,61.31
2022-08-19T16:30:37.841Z,59.94
2022-08-19T16:33:05.622Z,60.27
2022-08-19T16:35:32.912Z,61.03
2022-08-19T16:38:01.122Z,62.33
2022-08-19T16:40:28.480Z,62.85
2022-08-19T16:42:56.482Z,65.54
2022-08-19T16:45:23.772Z,64.09
2022-08-19T16:47:51.116Z,62.94
2022-08-19T16:50:25.416Z,62.36
2022-08-19T16:53:07.239Z,63.68
2022-08-19T16:55:34.424Z,63.85
2022-08-19T16:58:04.359Z,64.05
2022-08-19T17:00:31.673Z,65.07
2022-08-19T17:03:14.649Z,67.36
2022-08-19T17:05:46.432Z,67.41
2022-08-19T17:08:17.883Z,66.07
2022-08-19T17:11:07.909Z,64.69
2022-08-19T17:13:33.200Z,63.93
2022-08-19T17:16:00.542Z,65.08
2022-08-19T17:18:31.773Z,65.31
2022-08-19T17:21:01.191Z,65.86
2022-08-19T17:23:42.710Z,67.09
2022-08-19T17:26:17.974Z,66.69
2022-08-19T17:28:49.636Z,64.96
2022-08-19T17:31:18.856Z,64.37
2022-08-19T17:33:48.030Z,66.64
2022-08-19T17:36:23.524Z,67.19
2022-08-19T17:38:55.263Z,68.46
2022-08-19T17:41:24.540Z,67.70
2022-08-19T17:43:52.257Z,66.53
2022-08-19T17:46:20.306Z,66.83
2022-08-19T17:48:56.670Z,67.42
2022-08-19T17:51:32.884Z,68.06
2022-08-19T17:54:00.816Z,66.67
2022-08-19T17:56:28.818Z,64.47
2022-08-19T17:59:00.134Z,65.79
2022-08-19T18:01:43.869Z,68.28
2022-08-19T18:04:18.704Z,69.55
2022-08-19T18:06:53.181Z,69.30
2022-08-19T18:09:42.428Z,69.98
2022-08-19T18:12:12.834Z,70.84
2022-08-19T18:14:41.297Z,70.96
2022-08-19T18:17:11.675Z,71.00
2022-08-19T18:19:42.726Z,70.96
2022-08-19T18:22:29.536Z,68.47
2022-08-19T18:24:58.547Z,68.93
2022-08-19T18:27:27.745Z,69.92
2022-08-19T18:29:59.240Z,70.38
2022-08-19T18:32:34.032Z,69.98
2022-08-19T18:35:03.885Z,70.63
2022-08-19T18:37:31.078Z,71.71
2022-08-19T18:40:16.633Z,72.55
2022-08-19T18:43:04.033Z,70.18
2022-08-19T18:45:50.306Z,72.08
2022-08-19T18:48:36.355Z,72.88
2022-08-19T18:51:03.792Z,72.37
2022-08-19T18:53:34.607Z,70.96
2022-08-19T18:56:02.030Z,72.57
2022-08-19T18:58:33.820Z,71.17
2022-08-19T19:01:16.438Z,71.23
2022-08-19T19:03:46.677Z,70.65
2022-08-19T19:06:19.884Z,71.42
2022-08-19T19:08:48.276Z,74.85
2022-08-19T19:11:22.588Z,74.94
2022-08-19T19:13:49.859Z,75.15
2022-08-19T19:16:22.387Z,75.02
2022-08-19T19:18:52.831Z,75.10
2022-08-19T19:21:23.039Z,75.35
2022-08-19T19:23:51.411Z,74.82
2022-08-19T19:26:18.801Z,74.45
2022-08-19T19:28:46.154Z,75.34
2022-08-19T19:31:19.331Z,76.09
2022-08-19T19:33:46.610Z,76.53
2022-08-19T19:36:14.263Z,76.02
2022-08-19T19:38:48.610Z,75.89
2022-08-19T19:41:24.224Z,73.06
2022-08-19T19:44:23.270Z,74.59
2022-08-19T19:46:43.927Z,75.59
2022-08-19T19:49:12.831Z,76.22
2022-08-19T19:51:41.411Z,76.63
2022-08-19T19:54:15.669Z,74.78
2022-08-19T19:56:45.009Z,73.87
2022-08-19T19:59:12.420Z,74.87
2022-08-19T20:01:40.980Z,76.22
2022-08-19T20:04:16.149Z,73.65
2022-08-19T20:06:45.495Z,74.80
2022-08-19T20:09:19.755Z,75.93
2022-08-19T20:11:53.383Z,75.97
2022-08-19T20:14:31.416Z,75.54
2022-08-19T20:17:00.218Z,75.98
2022-08-19T20:19:34.247Z,74.83
2022-08-19T20:22:01.545Z,75.48
2022-08-19T20:24:32.684Z,76.31
2022-08-19T20:27:01.423Z,77.18
2022-08-19T20:29:39.124Z,76.70
2022-08-19T20:32:10.208Z,76.92
2022-08-19T20:34:39.364Z,76.84
2022-08-19T20:37:09.303Z,76.83
2022-08-19T20:39:38.115Z,77.18
2022-08-19T20:42:05.685Z,75.45
2022-08-19T20:44:32.921Z,75.51
2022-08-19T20:47:03.608Z,76.20
2022-08-19T20:49:32.089Z,77.18
2022-08-19T20:51:59.383Z,79.08
2022-08-19T20:54:27.078Z,79.58
2022-08-19T20:56:54.556Z,79.80
2022-08-19T20:59:22.994Z,79.25
2022-08-19T21:01:51.872Z,79.91
2022-08-19T21:04:22.355Z,78.95
2022-08-19T21:06:50.588Z,77.98
2022-08-19T21:09:18.299Z,78.50
2022-08-19T21:11:45.624Z,78.56
2022-08-19T21:14:13.181Z,79.28
2022-08-19T21:16:40.519Z,78.09
2022-08-19T21:19:07.911Z,78.33
2022-08-19T21:21:35.272Z,78.68
2022-08-19T21:24:03.234Z,78.79
2022-08-19T21:26:30.557Z,78.98
2022-08-19T21:28:57.881Z,80.69
2022-08-19T21:31:25.251Z,81.21
2022-08-19T21:33:52.543Z,80.61
2022-08-19T21:36:19.940Z,80.54
2022-08-19T21:38:47.224Z,80.26
2022-08-19T21:41:14.552Z,79.81
2022-08-19T21:43:42.049Z,79.96
2022-08-19T21:46:09.554Z,80.43
2022-08-19T21:48:36.904Z,81.37
2022-08-19T21:51:04.268Z,81.25
2022-08-19T21:53:34.169Z,80.94
2022-08-19T21:56:03.860Z,80.90
2022-08-19T21:58:31.147Z,81.29
2022-08-19T22:01:05.695Z,81.84
2022-08-19T22:03:35.145Z,81.81
2022-08-19T22:06:02.870Z,82.13
2022-08-19T22:08:31.456Z,82.44
2022-08-19T22:11:01.392Z,82.93
2022-08-19T22:13:37.951Z,82.80
2022-08-19T22:16:07.670Z,82.94
2022-08-19T22:18:35.444Z,84.33
2022-08-19T22:21:06.391Z,84.67
2022-08-19T22:23:36.884Z,84.47
2022-08-19T22:26:04.275Z,83.87
2022-08-19T22:28:31.504Z,83.44
2022-08-19T22:30:58.754Z,83.48
2022-08-19T22:33:27.804Z,84.24
2022-08-19T22:35:56.028Z,83.75
2022-08-19T22:38:23.976Z,83.64
2022-08-19T22:40:52.882Z,83.28
2022-08-19T22:43:25.483Z,83.41
2022-08-19T22:45:54.627Z,83.04
2022-08-19T22:48:26.008Z,83.00
2022-08-19T22:51:13.899Z,82.99
2022-08-19T22:53:45.043Z,82.85
2022-08-19T22:56:15.456Z,83.03
2022-08-19T22:58:43.703Z,83.21
2022-08-19T23:01:14.620Z,83.91
2022-08-19T23:03:52.471Z,83.96
2022-08-19T23:06:19.747Z,82.99
2022-08-19T23:08:47.412Z,83.43
2022-08-19T23:11:15.131Z,84.69
2022-08-19T23:13:42.624Z,84.89
2022-08-19T23:16:09.963Z,85.09
2022-08-19T23:18:37.275Z,83.86
2022-08-19T23:21:09.623Z,84.14
2022-08-19T23:23:37.896Z,84.56
2022-08-19T23:26:10.818Z,84.26
2022-08-19T23:28:57.732Z,84.66
2022-08-19T23:31:26.732Z,84.77
2022-08-19T23:33:53.992Z,84.76
2022-08-19T23:36:22.577Z,85.00
2022-08-19T23:38:52.247Z,85.08
2022-08-19T23:41:21.428Z,84.72
2022-08-19T23:43:50.847Z,84.28
2022-08-19T23:46:27.401Z,84.38
2022-08-19T23:48:57.403Z,84.44
2022-08-19T23:51:26.511Z,84.19
2022-08-19T23:53:54.225Z,84.31
2022-08-19T23:56:21.532Z,85.35
2022-08-19T23:58:49.314Z,85.14
